Time;durP1;ratioP1;P1;durP2;ratioP2;P2;SDS_P1;SDS_P2;PMS_P1;PMS_P2;Temp;Humidity;BMP_temperature;BMP_pressure;BME280_temperature;BME280_humidity;BME280_pressure;Samples;Min_cycle;Max_cycle;Signal;HPM_P1;HPM_P2
2023/06/09 00:02:22;;;;;;;131.60;124.78;;;10.70;99.90;;;;;;5070629;28;20042;-69
2023/06/09 00:04:48;;;;;;;134.75;127.72;;;10.70;99.90;;;;;;5084957;28;20040;-69
2023/06/09 00:07:16;;;;;;;132.65;125.20;;;10.70;99.90;;;;;;5080302;28;20035;-69
2023/06/09 00:09:45;;;;;;;147.48;139.65;;;10.70;99.90;;;;;;5073978;28;20577;-68
2023/06/09 00:12:12;;;;;;;138.35;131.35;;;10.70;99.90;;;;;;5073450;28;20040;-69
2023/06/09 00:14:38;;;;;;;145.23;137.98;;;10.70;99.90;;;;;;5086607;28;20045;-69
2023/06/09 00:17:08;;;;;;;131.43;124.22;;;10.70;99.90;;;;;;5083371;28;20043;-69
2023/06/09 00:19:36;;;;;;;142.45;134.82;;;10.70;99.90;;;;;;5090945;28;20039;-68
2023/06/09 00:22:02;;;;;;;142.93;135.27;;;10.70;99.90;;;;;;5083182;28;20051;-69
2023/06/09 00:24:28;;;;;;;149.77;141.65;;;10.60;99.90;;;;;;5086584;27;20121;-69
2023/06/09 00:26:53;;;;;;;144.30;136.95;;;10.70;99.90;;;;;;5071190;28;20138;-69
2023/06/09 00:29:22;;;;;;;154.13;145.85;;;10.60;99.90;;;;;;5083117;28;20058;-69
2023/06/09 00:31:48;;;;;;;144.65;137.13;;;10.60;99.90;;;;;;5082233;28;20078;-69
2023/06/09 00:34:14;;;;;;;139.38;132.05;;;10.60;99.90;;;;;;5068737;28;20578;-69
2023/06/09 00:36:40;;;;;;;137.15;129.35;;;10.60;99.90;;;;;;5084143;28;20125;-69
2023/06/09 00:39:05;;;;;;;138.90;131.88;;;10.60;99.90;;;;;;5069018;28;20070;-69
2023/06/09 00:41:41;;;;;;;142.18;134.60;;;10.60;99.90;;;;;;5086103;28;20031;-69
2023/06/09 00:44:07;;;;;;;155.07;147.07;;;10.60;99.90;;;;;;5088948;28;20044;-69
2023/06/09 00:46:34;;;;;;;164.52;155.30;;;10.60;99.90;;;;;;5071447;28;20043;-69
2023/06/09 00:49:00;;;;;;;136.90;129.23;;;10.60;99.90;;;;;;5089893;28;20044;-69
2023/06/09 00:51:27;;;;;;;153.95;145.65;;;10.60;99.90;;;;;;5089824;28;20043;-69
2023/06/09 00:53:53;;;;;;;147.15;139.00;;;10.60;99.90;;;;;;5072659;28;20043;-69
2023/06/09 00:56:19;;;;;;;153.65;145.40;;;10.60;99.90;;;;;;5071025;28;20473;-69
2023/06/09 00:58:45;;;;;;;132.68;125.65;;;10.60;99.90;;;;;;5089648;28;20051;-69
2023/06/09 01:01:11;;;;;;;146.77;139.05;;;10.70;99.90;;;;;;5089744;28;20055;-68
2023/06/09 01:03:38;;;;;;;141.48;133.95;;;10.70;99.90;;;;;;5089199;28;20117;-69
2023/06/09 01:06:30;;;;;;;152.25;143.20;;;10.70;99.90;;;;;;5072279;28;20121;-69
2023/06/09 01:09:24;;;;;;;158.88;150.55;;;10.70;99.90;;;;;;5058477;28;20059;-69
2023/06/09 01:12:19;;;;;;;154.10;146.38;;;10.80;99.90;;;;;;5088124;28;20380;-69
2023/06/09 01:14:47;;;;;;;;;;;10.80;99.90;;;;;;5068678;28;20040;-69
2023/06/09 01:17:18;;;;;;;165.32;157.00;;;10.80;99.90;;;;;;5099593;28;20352;-69
2023/06/09 01:19:51;;;;;;;161.52;152.65;;;10.80;99.90;;;;;;5059318;28;20074;-69
2023/06/09 01:22:44;;;;;;;160.65;152.63;;;10.80;99.90;;;;;;5072895;28;20399;-69
2023/06/09 01:25:22;;;;;;;168.68;159.52;;;10.80;99.90;;;;;;5084010;28;20502;-68
2023/06/09 01:27:50;;;;;;;164.07;155.82;;;10.90;99.90;;;;;;5073712;28;20404;-69
2023/06/09 01:30:18;;;;;;;165.25;156.63;;;10.80;99.90;;;;;;5046233;28;20414;-69
2023/06/09 01:32:45;;;;;;;145.80;138.43;;;10.80;99.90;;;;;;5052636;28;20587;-69
2023/06/09 01:35:11;;;;;;;169.05;160.63;;;10.80;99.90;;;;;;5051876;28;20407;-69
2023/06/09 01:37:37;;;;;;;172.05;163.40;;;10.80;99.90;;;;;;5098857;28;20948;-69
2023/06/09 01:40:05;;;;;;;168.68;160.13;;;10.70;99.90;;;;;;5099426;28;20063;-69
2023/06/09 01:42:31;;;;;;;172.98;163.52;;;10.70;99.90;;;;;;5102637;28;20044;-69
2023/06/09 01:44:56;;;;;;;179.38;170.52;;;10.70;99.90;;;;;;5068883;28;20047;-69
2023/06/09 01:47:22;;;;;;;185.27;175.90;;;10.70;99.90;;;;;;5059489;28;20489;-69
2023/06/09 01:50:04;;;;;;;185.25;175.32;;;10.70;99.90;;;;;;5100557;28;20066;-69
2023/06/09 01:52:29;;;;;;;184.25;174.73;;;10.70;99.90;;;;;;5051688;28;20081;-69
2023/06/09 01:55:00;;;;;;;196.73;187.02;;;10.70;99.90;;;;;;5068063;28;20132;-69
2023/06/09 01:57:34;;;;;;;189.45;179.95;;;10.70;99.90;;;;;;5067968;28;20040;-69
2023/06/09 02:00:03;;;;;;;199.30;189.32;;;10.60;99.90;;;;;;5089881;28;20765;-69
2023/06/09 02:02:32;;;;;;;201.55;191.75;;;10.70;99.90;;;;;;5038196;28;20044;-69
2023/06/09 02:05:00;;;;;;;188.07;178.52;;;10.60;99.90;;;;;;5102913;28;20048;-69
2023/06/09 02:07:27;;;;;;;211.88;201.57;;;10.70;99.90;;;;;;5065769;28;20045;-69
2023/06/09 02:09:54;;;;;;;198.23;188.38;;;10.60;99.90;;;;;;5051448;28;20040;-69
2023/06/09 02:12:20;;;;;;;210.38;199.82;;;10.60;99.90;;;;;;5068514;28;20110;-69
2023/06/09 02:14:46;;;;;;;195.95;185.93;;;10.60;99.90;;;;;;5067159;28;20400;-69
2023/06/09 02:17:12;;;;;;;209.75;199.10;;;10.60;99.90;;;;;;5053123;28;20036;-69
2023/06/09 02:19:38;;;;;;;205.88;195.57;;;10.60;99.90;;;;;;5104307;28;20496;-69
2023/06/09 02:22:07;;;;;;;210.23;199.95;;;10.60;99.90;;;;;;5056655;28;20062;-69
2023/06/09 02:24:34;;;;;;;216.82;206.07;;;10.60;99.90;;;;;;5069777;28;20048;-69
2023/06/09 02:27:01;;;;;;;227.65;216.15;;;10.50;99.90;;;;;;5106121;28;20059;-69
2023/06/09 02:29:27;;;;;;;235.40;222.45;;;10.50;99.90;;;;;;5085307;28;20068;-69
2023/06/09 02:31:55;;;;;;;231.00;219.38;;;10.50;99.90;;;;;;5072694;28;20201;-69
2023/06/09 02:34:22;;;;;;;239.30;227.15;;;10.50;99.90;;;;;;5045343;28;20044;-69
2023/06/09 02:36:52;;;;;;;231.07;219.88;;;10.50;99.90;;;;;;5069950;28;20082;-69
2023/06/09 02:39:19;;;;;;;224.48;213.52;;;10.50;99.90;;;;;;5069860;28;20040;-69
2023/06/09 02:41:44;;;;;;;208.60;198.13;;;10.50;99.90;;;;;;5044747;28;20131;-69
2023/06/09 02:44:10;;;;;;;206.18;196.10;;;10.50;99.90;;;;;;5078914;28;20131;-69
2023/06/09 02:46:36;;;;;;;198.13;188.10;;;10.60;99.90;;;;;;5049038;28;20037;-69
2023/06/09 02:49:02;;;;;;;193.38;183.35;;;10.50;99.90;;;;;;5059901;28;20517;-69
2023/06/09 02:51:28;;;;;;;216.98;205.35;;;10.60;99.90;;;;;;5066314;28;20155;-69
2023/06/09 02:53:53;;;;;;;184.80;175.32;;;10.60;99.90;;;;;;5046391;28;20507;-69
2023/06/09 02:56:19;;;;;;;196.60;186.80;;;10.60;99.90;;;;;;5055040;28;20051;-69
2023/06/09 02:58:46;;;;;;;188.27;178.27;;;10.60;99.90;;;;;;5066652;28;20458;-69
2023/06/09 03:01:17;;;;;;;192.88;183.05;;;10.60;99.90;;;;;;5070209;28;20040;-69
2023/06/09 03:03:43;;;;;;;209.20;199.13;;;10.70;99.90;;;;;;5051939;28;20086;-69
2023/06/09 03:06:09;;;;;;;189.38;179.70;;;10.60;99.90;;;;;;5043542;28;20048;-69
2023/06/09 03:08:34;;;;;;;197.68;187.20;;;10.70;99.90;;;;;;5103068;28;20046;-69
2023/06/09 03:11:00;;;;;;;197.82;187.98;;;10.70;99.90;;;;;;5047670;28;20093;-69
2023/06/09 03:13:26;;;;;;;210.73;199.75;;;10.70;99.90;;;;;;5101076;28;20059;-69
2023/06/09 03:15:51;;;;;;;219.10;208.00;;;10.70;99.90;;;;;;5063082;28;20070;-69
2023/06/09 03:18:17;;;;;;;226.30;215.32;;;10.70;99.90;;;;;;5066111;28;20075;-69
2023/06/09 03:20:43;;;;;;;235.57;224.77;;;10.60;99.90;;;;;;5102595;28;20050;-69
2023/06/09 03:23:09;;;;;;;239.57;227.65;;;10.70;99.90;;;;;;5052189;28;20495;-69
2023/06/09 03:25:35;;;;;;;241.68;230.10;;;10.70;99.90;;;;;;5093761;28;20040;-69
2023/06/09 03:28:01;;;;;;;195.75;185.88;;;10.70;99.90;;;;;;5052404;28;20521;-69
2023/06/09 03:30:26;;;;;;;234.18;223.35;;;10.70;99.90;;;;;;5068550;28;20048;-69
2023/06/09 03:32:52;;;;;;;240.13;228.05;;;10.70;99.90;;;;;;5068168;28;20048;-69
2023/06/09 03:35:18;;;;;;;235.93;224.25;;;10.70;99.90;;;;;;5070854;28;20553;-69
2023/06/09 03:37:44;;;;;;;227.70;216.30;;;10.70;99.90;;;;;;5069650;28;20093;-69
2023/06/09 03:40:10;;;;;;;242.50;230.25;;;10.70;99.90;;;;;;5047516;28;20429;-70
2023/06/09 03:42:36;;;;;;;243.20;231.05;;;10.80;99.90;;;;;;5068339;28;20162;-69
2023/06/09 03:45:01;;;;;;;251.82;239.63;;;10.80;99.90;;;;;;5046514;28;20079;-69
2023/06/09 03:47:27;;;;;;;226.60;215.55;;;10.80;99.90;;;;;;5054264;28;20040;-69
2023/06/09 03:49:53;;;;;;;220.13;209.80;;;10.80;99.90;;;;;;5064517;28;20071;-69
2023/06/09 03:52:21;;;;;;;228.63;217.25;;;10.80;99.90;;;;;;5050828;28;20415;-69
2023/06/09 03:54:47;;;;;;;230.45;218.82;;;10.80;99.90;;;;;;5067282;28;20036;-69
2023/06/09 03:57:13;;;;;;;228.45;217.13;;;10.90;99.90;;;;;;5069124;28;20040;-69
2023/06/09 03:59:39;;;;;;;215.93;204.68;;;10.80;99.90;;;;;;5066704;28;20047;-69
2023/06/09 04:02:04;;;;;;;200.10;189.35;;;10.90;99.90;;;;;;5047956;28;20467;-69
2023/06/09 04:04:30;;;;;;;191.23;180.88;;;11.00;99.90;;;;;;5062103;28;20097;-69
2023/06/09 04:06:56;;;;;;;177.77;168.05;;;11.00;99.90;;;;;;5053581;28;20046;-69
2023/06/09 04:09:22;;;;;;;170.23;161.15;;;11.10;99.90;;;;;;5066987;28;20032;-69
2023/06/09 04:11:48;;;;;;;154.38;145.93;;;11.20;99.90;;;;;;5070444;28;20143;-69
2023/06/09 04:14:13;;;;;;;142.38;134.32;;;11.20;99.90;;;;;;5064762;28;20567;-69
2023/06/09 04:16:39;;;;;;;137.00;129.70;;;11.40;99.90;;;;;;5054560;28;20040;-69
2023/06/09 04:19:05;;;;;;;132.27;125.63;;;11.50;99.90;;;;;;5065243;28;20040;-69
2023/06/09 04:21:32;;;;;;;138.02;130.02;;;11.50;99.90;;;;;;5064505;28;20032;-69
2023/06/09 04:23:58;;;;;;;110.45;103.63;;;11.60;99.90;;;;;;5069650;28;20889;-69
2023/06/09 04:26:24;;;;;;;129.88;122.15;;;11.70;99.90;;;;;;5053912;28;20481;-69
2023/06/09 04:28:53;;;;;;;113.35;106.72;;;11.80;99.90;;;;;;5073582;28;20085;-69
2023/06/09 04:31:23;;;;;;;136.85;129.43;;;12.00;99.90;;;;;;5077969;28;20556;-69
2023/06/09 04:33:51;;;;;;;133.32;125.57;;;12.00;99.90;;;;;;5090724;28;20105;-69
2023/06/09 04:36:17;;;;;;;138.27;130.10;;;12.10;99.90;;;;;;5088762;28;20044;-70
2023/06/09 04:38:45;;;;;;;138.25;130.95;;;12.30;99.90;;;;;;5090937;28;20062;-70
2023/06/09 04:41:11;;;;;;;145.98;138.10;;;12.50;99.90;;;;;;5062253;28;20036;-70
2023/06/09 04:43:39;;;;;;;134.13;126.63;;;12.50;99.90;;;;;;5084318;28;20511;-70
2023/06/09 04:46:06;;;;;;;133.10;126.20;;;12.50;99.90;;;;;;5087951;28;20043;-69
2023/06/09 04:48:33;;;;;;;124.32;117.20;;;12.50;99.90;;;;;;5088342;27;20085;-70
2023/06/09 04:51:01;;;;;;;149.88;142.02;;;12.50;99.90;;;;;;5087951;28;20047;-69
2023/06/09 04:53:28;;;;;;;141.52;134.27;;;12.60;99.90;;;;;;5084998;28;20107;-69
2023/06/09 04:55:54;;;;;;;158.98;151.30;;;12.60;99.90;;;;;;5072102;28;20050;-69
2023/06/09 04:58:20;;;;;;;139.32;131.98;;;12.70;99.90;;;;;;5087983;28;20515;-69
2023/06/09 05:00:46;;;;;;;143.77;136.93;;;12.80;99.90;;;;;;5068941;28;20032;-70
2023/06/09 05:03:17;;;;;;;134.93;127.38;;;12.90;99.90;;;;;;5077793;28;20040;-70
2023/06/09 05:05:43;;;;;;;120.20;113.90;;;13.00;99.90;;;;;;5066570;28;20403;-71
2023/06/09 05:08:09;;;;;;;167.40;159.20;;;13.10;99.90;;;;;;5082329;28;20189;-70
2023/06/09 05:10:35;;;;;;;159.57;151.55;;;13.20;99.90;;;;;;5060040;28;20526;-70
2023/06/09 05:13:01;;;;;;;170.75;162.52;;;13.20;99.90;;;;;;5089812;28;20130;-70
2023/06/09 05:15:27;;;;;;;199.15;189.65;;;13.30;99.90;;;;;;5080310;28;20055;-69
2023/06/09 05:17:53;;;;;;;279.95;266.85;;;13.50;99.90;;;;;;5091991;28;20532;-70
2023/06/09 05:20:19;;;;;;;236.90;225.75;;;13.80;99.90;;;;;;5072953;28;20035;-70
2023/06/09 05:22:45;;;;;;;236.60;225.50;;;14.10;99.90;;;;;;5071182;28;20092;-70
2023/06/09 05:25:13;;;;;;;263.95;251.52;;;14.10;99.90;;;;;;5089576;28;20048;-70
2023/06/09 05:27:39;;;;;;;261.67;249.45;;;14.00;99.90;;;;;;5063395;28;20043;-70
2023/06/09 05:30:05;;;;;;;246.70;235.18;;;14.00;99.90;;;;;;5077201;28;20129;-70
2023/06/09 05:32:31;;;;;;;222.50;212.30;;;14.00;99.90;;;;;;5093449;28;20039;-70
2023/06/09 05:34:57;;;;;;;235.95;225.20;;;14.10;99.90;;;;;;5087238;28;20047;-70
2023/06/09 05:37:22;;;;;;;236.85;226.57;;;14.10;99.90;;;;;;5088057;28;20035;-70
2023/06/09 05:39:48;;;;;;;217.10;207.43;;;14.10;99.90;;;;;;5078805;28;20590;-70
2023/06/09 05:42:14;;;;;;;235.35;224.40;;;14.20;99.90;;;;;;5091890;28;20092;-70
2023/06/09 05:44:40;;;;;;;241.45;230.32;;;14.20;99.90;;;;;;5083637;28;20043;-70
2023/06/09 05:47:05;;;;;;;194.18;185.07;;;14.30;99.90;;;;;;5062598;28;20577;-70
2023/06/09 05:49:33;;;;;;;204.32;195.23;;;14.50;99.90;;;;;;5089942;28;20479;-70
2023/06/09 05:51:58;;;;;;;205.07;195.82;;;14.60;99.90;;;;;;5093179;28;20048;-70
2023/06/09 05:54:24;;;;;;;223.73;213.48;;;14.70;99.90;;;;;;5118530;27;20100;-70
2023/06/09 05:56:51;;;;;;;196.05;186.52;;;14.80;99.90;;;;;;5094808;28;20040;-70
2023/06/09 05:59:20;;;;;;;240.20;229.00;;;14.90;99.90;;;;;;5092716;28;20058;-70
2023/06/09 06:01:46;;;;;;;237.45;226.60;;;15.10;99.90;;;;;;5076075;28;20035;-70
2023/06/09 06:04:12;;;;;;;261.70;249.65;;;15.50;99.90;;;;;;5061368;28;20071;-70
2023/06/09 06:06:38;;;;;;;253.25;241.50;;;15.60;99.90;;;;;;5075150;28;20067;-70
2023/06/09 06:09:04;;;;;;;253.93;242.32;;;15.50;99.90;;;;;;5072506;28;20039;-70
2023/06/09 06:11:30;;;;;;;245.27;233.75;;;15.60;99.90;;;;;;5091055;28;20043;-70
2023/06/09 06:13:56;;;;;;;241.23;230.20;;;15.60;99.90;;;;;;5071625;28;20045;-70
2023/06/09 06:16:22;;;;;;;278.92;265.20;;;15.70;99.90;;;;;;5075074;28;20031;-70
2023/06/09 06:18:48;;;;;;;282.40;268.58;;;15.80;99.90;;;;;;5109760;27;20046;-71
2023/06/09 06:21:13;;;;;;;265.48;252.77;;;15.90;99.90;;;;;;5075935;28;20035;-70
2023/06/09 06:23:39;;;;;;;285.48;271.98;;;16.80;99.90;;;;;;5082607;28;20102;-71
2023/06/09 06:26:05;;;;;;;289.15;275.50;;;17.50;99.90;;;;;;5079994;28;20151;-70
2023/06/09 06:28:31;;;;;;;340.30;323.70;;;18.30;99.90;;;;;;5071439;28;20500;-70
2023/06/09 06:30:57;;;;;;;347.52;330.45;;;19.00;99.90;;;;;;5076081;28;20047;-71
2023/06/09 06:33:23;;;;;;;330.73;314.27;;;19.40;99.90;;;;;;5120046;27;20064;-70
2023/06/09 06:35:49;;;;;;;349.05;332.52;;;19.50;99.90;;;;;;5073824;28;20048;-70
2023/06/09 06:38:15;;;;;;;368.90;350.98;;;19.70;99.90;;;;;;5097184;28;20055;-70
2023/06/09 06:40:42;;;;;;;352.05;334.63;;;20.00;99.90;;;;;;5090992;28;20443;-70
2023/06/09 06:43:08;;;;;;;308.10;293.80;;;20.20;99.90;;;;;;5074869;28;20037;-70
2023/06/09 06:45:34;;;;;;;262.45;250.50;;;20.20;99.90;;;;;;5074193;28;20051;-70
2023/06/09 06:48:00;;;;;;;253.65;242.20;;;20.30;99.90;;;;;;5074966;28;20050;-70
2023/06/09 06:50:27;;;;;;;240.27;229.32;;;20.60;99.90;;;;;;5075967;28;20039;-70
2023/06/09 06:52:53;;;;;;;215.82;205.90;;;20.90;99.90;;;;;;5090586;28;20035;-70
2023/06/09 06:55:18;;;;;;;226.43;215.95;;;21.20;99.90;;;;;;5071496;28;20044;-69
2023/06/09 06:57:45;;;;;;;205.25;195.77;;;21.40;99.90;;;;;;5073060;28;20039;-70
2023/06/09 07:00:14;;;;;;;155.85;148.27;;;21.60;99.90;;;;;;5099964;28;20545;-70
2023/06/09 07:02:49;;;;;;;151.85;144.45;;;21.60;99.90;;;;;;5105886;28;20044;-70
2023/06/09 07:05:15;;;;;;;165.40;157.40;;;21.70;99.90;;;;;;5089374;28;20051;-70
2023/06/09 07:07:43;;;;;;;160.68;152.80;;;21.60;99.90;;;;;;5074881;28;20040;-70
2023/06/09 07:10:10;;;;;;;152.98;145.52;;;21.90;99.90;;;;;;5074339;28;20380;-70
2023/06/09 07:12:36;;;;;;;181.38;172.48;;;22.10;99.90;;;;;;5078459;27;20062;-70
2023/06/09 07:15:03;;;;;;;212.80;202.85;;;22.30;99.90;;;;;;5068542;28;20440;-70
2023/06/09 07:17:28;;;;;;;229.00;218.35;;;22.60;99.90;;;;;;5092930;27;20423;-70
2023/06/09 07:19:55;;;;;;;235.00;224.30;;;22.60;99.90;;;;;;5075693;28;20508;-71
2023/06/09 07:22:20;;;;;;;282.80;269.25;;;22.90;99.90;;;;;;5090722;28;20144;-70
2023/06/09 07:24:46;;;;;;;322.48;306.52;;;22.80;99.90;;;;;;5086312;28;20043;-70
2023/06/09 07:27:12;;;;;;;259.30;246.80;;;22.80;99.90;;;;;;5075032;27;20395;-70
2023/06/09 07:29:41;;;;;;;294.95;281.30;;;22.70;99.90;;;;;;5072857;28;20048;-70
2023/06/09 07:32:08;;;;;;;280.15;266.92;;;22.70;99.90;;;;;;5101769;28;20054;-70
2023/06/09 07:34:35;;;;;;;350.60;333.02;;;22.70;99.90;;;;;;5064138;28;20040;-71
2023/06/09 07:37:05;;;;;;;335.80;319.42;;;22.50;99.90;;;;;;5102106;28;20127;-71
2023/06/09 07:39:31;;;;;;;304.95;290.55;;;22.40;99.90;;;;;;5077031;28;20385;-70
2023/06/09 07:41:57;;;;;;;280.23;267.08;;;22.50;99.90;;;;;;5082213;28;20439;-70
2023/06/09 07:44:24;;;;;;;324.58;309.05;;;22.80;99.90;;;;;;5072335;28;20059;-70
2023/06/09 07:46:50;;;;;;;327.50;311.63;;;23.50;99.90;;;;;;5097299;28;20087;-70
2023/06/09 07:49:16;;;;;;;337.70;321.55;;;23.90;99.90;;;;;;5092841;28;20541;-72
2023/06/09 07:51:43;;;;;;;374.67;356.17;;;23.90;99.90;;;;;;5058166;28;20113;-70
2023/06/09 07:54:09;;;;;;;378.25;359.40;;;23.80;99.90;;;;;;5084831;28;20058;-70
2023/06/09 07:56:36;;;;;;;366.45;347.90;;;23.70;99.90;;;;;;5086630;28;20032;-70
2023/06/09 07:59:02;;;;;;;405.83;385.13;;;23.80;99.90;;;;;;5065267;28;20045;-70
2023/06/09 08:01:29;;;;;;;406.70;386.10;;;24.10;99.90;;;;;;5089299;27;20082;-70
2023/06/09 08:03:55;;;;;;;363.02;344.60;;;24.30;99.90;;;;;;5074391;28;20112;-71
2023/06/09 08:06:21;;;;;;;436.35;413.98;;;24.00;99.90;;;;;;5064220;28;20043;-70
2023/06/09 08:08:46;;;;;;;396.75;376.67;;;23.90;99.90;;;;;;5069552;28;20415;-70
2023/06/09 08:11:12;;;;;;;381.20;362.00;;;24.10;99.90;;;;;;5066384;28;20040;-71
2023/06/09 08:13:38;;;;;;;371.38;352.85;;;24.30;99.90;;;;;;5081190;28;20035;-70
2023/06/09 08:16:04;;;;;;;426.38;404.73;;;24.20;99.90;;;;;;5082942;27;20548;-69
2023/06/09 08:18:29;;;;;;;301.80;287.25;;;24.30;99.90;;;;;;5082118;28;20123;-71
2023/06/09 08:20:55;;;;;;;298.45;283.80;;;24.50;99.90;;;;;;5096387;28;20411;-71
2023/06/09 08:23:20;;;;;;;215.25;204.65;;;24.80;99.90;;;;;;5084435;28;20113;-70
2023/06/09 08:25:47;;;;;;;115.60;109.82;;;24.80;99.90;;;;;;5096585;28;20035;-70
2023/06/09 08:28:13;;;;;;;357.80;340.00;;;24.70;99.90;;;;;;5069765;28;20157;-71
2023/06/09 08:30:39;;;;;;;391.77;372.23;;;24.80;99.90;;;;;;5052149;28;20518;-70
2023/06/09 08:33:05;;;;;;;209.75;199.52;;;25.00;99.90;;;;;;5068642;28;20044;-70
2023/06/09 08:35:32;;;;;;;107.95;102.47;;;25.30;99.90;;;;;;5060870;28;20464;-71
2023/06/09 08:37:59;;;;;;;199.57;190.20;;;25.50;99.90;;;;;;5060375;28;20044;-70
2023/06/09 08:40:24;;;;;;;110.95;105.43;;;25.90;99.90;;;;;;5061520;28;20118;-70
2023/06/09 08:42:54;;;;;;;120.20;114.38;;;25.80;99.90;;;;;;5063364;28;20587;-71
2023/06/09 08:45:21;;;;;;;79.38;75.13;;;25.80;99.90;;;;;;5049143;28;20545;-71
2023/06/09 08:47:53;;;;;;;91.55;86.90;;;25.60;99.90;;;;;;5045322;28;20048;-71
2023/06/09 08:50:22;;;;;;;240.93;229.07;;;25.60;99.90;;;;;;5051262;28;20040;-70
2023/06/09 08:52:48;;;;;;;167.00;158.40;;;25.70;99.90;;;;;;5052865;28;20113;-70
2023/06/09 08:55:14;;;;;;;67.85;64.13;;;25.70;99.90;;;;;;5071404;28;20388;-70
2023/06/09 08:57:41;;;;;;;95.82;91.00;;;25.90;99.90;;;;;;5046041;28;20395;-70
2023/06/09 09:00:11;;;;;;;108.68;102.97;;;26.30;99.90;;;;;;5065042;28;20036;-71
2023/06/09 09:02:37;;;;;;;110.53;105.07;;;26.10;99.90;;;;;;5057990;28;20035;-71
2023/06/09 09:05:02;;;;;;;89.38;84.70;;;26.10;99.90;;;;;;5060308;28;20492;-71
2023/06/09 09:07:29;;;;;;;134.98;128.35;;;26.00;99.90;;;;;;5068275;28;20529;-70
2023/06/09 09:09:55;;;;;;;126.60;120.38;;;26.20;99.90;;;;;;5052532;28;20054;-70
2023/06/09 09:12:20;;;;;;;138.88;132.40;;;26.50;99.90;;;;;;5071035;28;20036;-70
2023/06/09 09:14:47;;;;;;;137.23;130.40;;;26.80;99.90;;;;;;5052422;28;20543;-71
2023/06/09 09:17:14;;;;;;;92.45;87.75;;;26.80;99.90;;;;;;5066205;28;20036;-71
2023/06/09 09:19:45;;;;;;;119.15;113.25;;;27.20;99.90;;;;;;5043270;28;20105;-70
2023/06/09 09:22:11;;;;;;;73.30;69.10;;;27.10;99.90;;;;;;5068703;28;20055;-70
2023/06/09 09:24:41;;;;;;;78.25;74.13;;;27.10;99.90;;;;;;5050745;28;20380;-70
2023/06/09 09:27:26;;;;;;;130.77;124.38;;;26.90;99.90;;;;;;5047626;28;20048;-71
2023/06/09 09:29:51;;;;;;;78.00;74.03;;;26.90;99.90;;;;;;5065396;28;20106;-70
2023/06/09 09:32:24;;;;;;;55.10;51.97;;;26.80;99.90;;;;;;5053278;28;20083;-71
2023/06/09 09:34:49;;;;;;;62.47;59.08;;;26.90;99.90;;;;;;5067329;28;20040;-70
2023/06/09 09:37:16;;;;;;;32.85;30.83;;;26.80;99.90;;;;;;5057444;28;20038;-71
2023/06/09 09:39:52;;;;;;;68.32;64.47;;;26.90;99.90;;;;;;5052560;28;20040;-70
2023/06/09 09:42:18;;;;;;;54.58;51.45;;;26.70;99.90;;;;;;5065109;28;20071;-70
2023/06/09 09:44:47;;;;;;;81.90;77.75;;;26.60;99.90;;;;;;5063059;28;20090;-70
2023/06/09 09:47:15;;;;;;;32.80;30.15;;;26.50;99.90;;;;;;5050293;28;20036;-70
2023/06/09 09:50:00;;;;;;;66.32;62.80;;;26.70;99.90;;;;;;5051420;28;20094;-71
2023/06/09 09:52:27;;;;;;;103.38;98.43;;;26.60;99.90;;;;;;5066719;28;20487;-70
2023/06/09 09:55:00;;;;;;;53.85;50.53;;;26.70;99.90;;;;;;5075622;28;20044;-70
2023/06/09 09:57:30;;;;;;;27.00;24.90;;;27.10;99.90;;;;;;5060416;28;20044;-70
2023/06/09 09:59:59;;;;;;;47.67;45.03;;;27.30;99.90;;;;;;5061179;28;20047;-71
2023/06/09 10:02:25;;;;;;;106.20;101.22;;;27.50;99.90;;;;;;5061194;28;20104;-70
2023/06/09 10:04:54;;;;;;;54.97;51.83;;;27.30;99.90;;;;;;5067469;28;20051;-70
2023/06/09 10:07:21;;;;;;;47.53;45.10;;;27.40;99.90;;;;;;5051314;28;20050;-71
2023/06/09 10:09:50;;;;;;;38.92;36.58;;;27.40;99.90;;;;;;5052203;28;20043;-71
2023/06/09 10:12:18;;;;;;;35.28;32.92;;;27.40;99.90;;;;;;5041821;28;20487;-71
2023/06/09 10:14:45;;;;;;;36.30;34.05;;;27.40;99.90;;;;;;5049653;28;20040;-70
2023/06/09 10:17:11;;;;;;;24.27;22.58;;;27.30;99.90;;;;;;5062155;28;20499;-70
2023/06/09 10:19:37;;;;;;;25.77;23.98;;;27.20;99.90;;;;;;5058030;28;20080;-70
2023/06/09 10:22:04;;;;;;;67.55;64.13;;;27.30;99.90;;;;;;5046260;28;20048;-70
2023/06/09 10:24:33;;;;;;;75.68;71.72;;;27.50;99.90;;;;;;5059020;28;20044;-70
2023/06/09 10:26:59;;;;;;;54.22;51.08;;;27.80;99.90;;;;;;5063684;28;20051;-71
2023/06/09 10:29:27;;;;;;;38.63;36.30;;;28.00;99.90;;;;;;5065667;28;20130;-70
2023/06/09 10:31:55;;;;;;;37.80;35.58;;;27.80;99.90;;;;;;5074896;27;20039;-71
2023/06/09 10:34:23;;;;;;;36.35;33.95;;;27.90;99.90;;;;;;5085504;28;20047;-70
2023/06/09 10:36:53;;;;;;;38.13;35.80;;;27.70;99.90;;;;;;5093071;27;20126;-70
2023/06/09 10:39:30;;;;;;;29.10;27.00;;;27.70;99.90;;;;;;5082828;28;20381;-70
2023/06/09 10:42:13;;;;;;;34.40;32.13;;;27.80;99.90;;;;;;5067479;28;20122;-71
2023/06/09 10:44:58;;;;;;;31.88;29.63;;;27.80;99.90;;;;;;5092510;27;20043;-70
2023/06/09 10:47:43;;;;;;;40.40;37.92;;;27.90;99.90;;;;;;5085883;28;20146;-70
2023/06/09 10:50:22;;;;;;;47.13;44.30;;;28.10;99.90;;;;;;5085866;28;20043;-71
2023/06/09 10:52:56;;;;;;;29.13;27.35;;;28.20;99.90;;;;;;5095978;27;20079;-70
2023/06/09 10:55:27;;;;;;;28.63;26.50;;;28.20;99.90;;;;;;5092099;28;20043;-70
2023/06/09 10:57:54;;;;;;;30.27;28.25;;;28.10;99.90;;;;;;5084190;28;20497;-70
2023/06/09 11:00:20;;;;;;;22.70;21.00;;;28.00;99.90;;;;;;5089323;28;20062;-71
2023/06/09 11:03:30;;;;;;;43.40;40.90;;;27.90;99.90;;;;;;5083614;28;20135;-70
2023/06/09 11:06:00;;;;;;;25.25;23.40;;;27.90;99.90;;;;;;5085852;28;20046;-71
2023/06/09 11:08:26;;;;;;;33.65;31.45;;;28.00;99.90;;;;;;5083677;28;20562;-71
2023/06/09 11:10:52;;;;;;;32.65;30.65;;;28.00;99.90;;;;;;5083015;28;20051;-70
2023/06/09 11:13:39;;;;;;;59.67;56.50;;;28.00;99.90;;;;;;5110716;27;20050;-70
2023/06/09 11:16:07;;;;;;;34.42;32.22;;;28.10;99.90;;;;;;5085926;28;20491;-70
2023/06/09 11:18:33;;;;;;;33.53;31.30;;;28.10;99.90;;;;;;5067465;28;20487;-70
2023/06/09 11:21:08;;;;;;;28.02;26.20;;;28.10;99.90;;;;;;5081592;28;20055;-70
2023/06/09 11:23:54;;;;;;;32.10;29.98;;;28.40;99.90;;;;;;5085503;28;20104;-70
2023/06/09 11:26:24;;;;;;;47.75;44.85;;;28.60;99.90;;;;;;5092081;27;20089;-70
2023/06/09 11:28:50;;;;;;;23.95;22.05;;;28.80;99.90;;;;;;5092472;28;20109;-70
2023/06/09 11:31:16;;;;;;;53.15;50.33;;;28.70;99.90;;;;;;5068607;28;20071;-70
2023/06/09 11:33:47;;;;;;;33.58;31.35;;;28.80;99.90;;;;;;5068788;28;20047;-70
2023/06/09 11:36:18;;;;;;;30.17;28.27;;;29.00;99.90;;;;;;5052674;28;20040;-69
2023/06/09 11:38:45;;;;;;;51.95;49.03;;;29.20;99.90;;;;;;5066109;28;20036;-69
2023/06/09 11:41:12;;;;;;;87.93;83.45;;;29.50;99.90;;;;;;5056397;28;20384;-70
2023/06/09 11:43:38;;;;;;;175.43;167.18;;;29.60;99.90;;;;;;5057006;28;20043;-71
2023/06/09 11:46:03;;;;;;;188.13;179.32;;;29.80;99.90;;;;;;5060783;28;20040;-70
2023/06/09 11:48:30;;;;;;;80.95;76.72;;;29.80;99.90;;;;;;5070935;28;20032;-70
2023/06/09 11:50:55;;;;;;;142.63;135.85;;;29.80;99.90;;;;;;5062226;28;20036;-70
2023/06/09 11:53:24;;;;;;;89.93;85.43;;;29.80;99.90;;;;;;5040734;28;20047;-70
2023/06/09 11:56:01;;;;;;;147.77;140.80;;;29.80;99.90;;;;;;5057609;28;20040;-70
2023/06/09 11:58:27;;;;;;;76.22;72.32;;;29.70;99.90;;;;;;5066807;28;20044;-70
2023/06/09 12:00:53;;;;;;;158.32;151.00;;;29.70;99.90;;;;;;5042334;28;20047;-70
2023/06/09 12:03:19;;;;;;;122.13;116.18;;;29.80;99.90;;;;;;5061075;28;21205;-71
2023/06/09 12:05:49;;;;;;;125.82;120.07;;;29.80;97.00;;;;;;5070871;28;20399;-70
2023/06/09 12:08:15;;;;;;;110.82;105.70;;;29.80;99.90;;;;;;5067850;28;20047;-70
2023/06/09 12:10:41;;;;;;;113.10;107.82;;;29.80;99.90;;;;;;5056732;28;20036;-70
2023/06/09 12:13:07;;;;;;;116.53;110.65;;;29.90;99.90;;;;;;5055111;28;20127;-70
2023/06/09 12:15:33;;;;;;;91.00;86.55;;;30.10;99.90;;;;;;5066683;28;20040;-71
2023/06/09 12:18:04;;;;;;;46.38;43.72;;;30.00;99.90;;;;;;5070007;28;20032;-71